Time;durP1;ratioP1;P1;durP2;ratioP2;P2;SDS_P1;SDS_P2;PMS_P1;PMS_P2;Temp;Humidity;BMP_temperature;BMP_pressure;BME280_temperature;BME280_humidity;BME280_pressure;Samples;Min_cycle;Max_cycle;Signal;HPM_P1;HPM_P2
2024/01/18 00:01:41;;;;;;;1.08;0.35;;;;;;;;;;4970323;28;20050;-67
2024/01/18 00:04:08;;;;;;;1.55;0.35;;;;;;;;;;4969036;28;20113;-66
2024/01/18 00:06:37;;;;;;;5.35;0.75;;;;;;;;;;4970020;28;20506;-67
2024/01/18 00:09:04;;;;;;;7.00;0.30;;;;;;;;;;4970020;28;20054;-67
2024/01/18 00:11:32;;;;;;;4.90;0.20;;;;;;;;;;4969673;28;20046;-67
2024/01/18 00:14:00;;;;;;;2.95;0.20;;;;;;;;;;4970079;28;20062;-67
2024/01/18 00:16:27;;;;;;;1.95;0.25;;;;;;;;;;4969537;28;20061;-67
2024/01/18 00:18:55;;;;;;;2.03;0.13;;;;;;;;;;4949658;28;20059;-66
2024/01/18 00:21:23;;;;;;;6.53;0.30;;;;;;;;;;4968802;28;20094;-66
2024/01/18 00:23:51;;;;;;;3.97;0.35;;;;;;;;;;4970215;28;20514;-67
2024/01/18 00:26:18;;;;;;;1.48;0.10;;;;;;;;;;4969061;28;20050;-67
2024/01/18 00:28:46;;;;;;;0.20;0.10;;;;;;;;;;4966990;28;20425;-67
2024/01/18 00:31:14;;;;;;;0.68;0.20;;;;;;;;;;4950999;28;20110;-67
2024/01/18 00:33:42;;;;;;;3.30;0.28;;;;;;;;;;4969878;28;20051;-67
2024/01/18 00:36:09;;;;;;;3.42;0.20;;;;;;;;;;4968628;28;20043;-67
2024/01/18 00:38:39;;;;;;;3.38;0.32;;;;;;;;;;4969705;28;20454;-67
2024/01/18 00:41:08;;;;;;;2.35;0.50;;;;;;;;;;4968342;28;20050;-67
2024/01/18 00:43:35;;;;;;;1.73;0.20;;;;;;;;;;4972636;28;20042;-66
2024/01/18 00:46:04;;;;;;;5.18;0.30;;;;;;;;;;4966398;28;20043;-66
2024/01/18 00:48:31;;;;;;;4.68;0.20;;;;;;;;;;4968523;28;20090;-66
2024/01/18 00:50:59;;;;;;;3.47;0.30;;;;;;;;;;4968770;28;20066;-67
2024/01/18 00:53:26;;;;;;;1.92;0.30;;;;;;;;;;4968398;28;20051;-66
2024/01/18 00:55:53;;;;;;;1.13;0.20;;;;;;;;;;4967635;28;20053;-66
2024/01/18 00:58:22;;;;;;;5.68;0.30;;;;;;;;;;4958512;28;20144;-66
2024/01/18 01:00:49;;;;;;;4.32;0.43;;;;;;;;;;4949030;28;20054;-66
2024/01/18 01:03:17;;;;;;;8.57;0.30;;;;;;;;;;4952647;28;20495;-66
2024/01/18 01:05:44;;;;;;;1.63;0.20;;;;;;;;;;4932851;29;20062;-66
2024/01/18 01:08:11;;;;;;;1.65;0.30;;;;;;;;;;4949884;28;20071;-66
2024/01/18 01:10:38;;;;;;;1.05;0.10;;;;;;;;;;4950599;28;20051;-66
2024/01/18 01:13:09;;;;;;;3.95;0.30;;;;;;;;;;4949612;28;20062;-66
2024/01/18 01:15:38;;;;;;;5.28;0.40;;;;;;;;;;4950620;28;20114;-67
2024/01/18 01:18:05;;;;;;;2.25;0.20;;;;;;;;;;4956739;28;20062;-66
2024/01/18 01:20:33;;;;;;;4.53;0.20;;;;;;;;;;4960329;28;20055;-67
2024/01/18 01:23:00;;;;;;;1.60;0.30;;;;;;;;;;4951547;28;20050;-66
2024/01/18 01:25:27;;;;;;;0.30;0.10;;;;;;;;;;4952866;28;20186;-66
2024/01/18 01:27:54;;;;;;;5.80;0.60;;;;;;;;;;4948524;28;20147;-66
2024/01/18 01:30:21;;;;;;;4.28;0.30;;;;;;;;;;4948911;28;20074;-66
2024/01/18 01:32:50;;;;;;;0.10;0.10;;;;;;;;;;4959766;28;20057;-67
2024/01/18 01:35:17;;;;;;;6.90;0.40;;;;;;;;;;4963366;28;20058;-66
2024/01/18 01:37:45;;;;;;;4.35;0.45;;;;;;;;;;4953804;28;20063;-67
2024/01/18 01:40:12;;;;;;;2.10;0.20;;;;;;;;;;4949246;28;20047;-66
2024/01/18 01:42:39;;;;;;;3.47;0.70;;;;;;;;;;4946140;28;20126;-66
2024/01/18 01:45:07;;;;;;;6.00;0.47;;;;;;;;;;4948599;28;20505;-67
2024/01/18 01:47:34;;;;;;;0.77;0.20;;;;;;;;;;4950668;28;20055;-66
2024/01/18 01:50:03;;;;;;;2.85;0.35;;;;;;;;;;4948057;28;20062;-67
2024/01/18 01:52:32;;;;;;;6.28;0.68;;;;;;;;;;4948914;28;20047;-66
2024/01/18 01:55:00;;;;;;;2.03;0.35;;;;;;;;;;4949412;28;20062;-67
2024/01/18 01:57:28;;;;;;;9.23;0.75;;;;;;;;;;4951488;28;20070;-67
2024/01/18 01:59:55;;;;;;;2.38;0.30;;;;;;;;;;4950753;28;20066;-66
2024/01/18 02:02:24;;;;;;;3.08;0.68;;;;;;;;;;4930266;29;20078;-66
2024/01/18 02:04:51;;;;;;;1.90;0.20;;;;;;;;;;4951564;28;20106;-66
2024/01/18 02:07:21;;;;;;;1.73;0.30;;;;;;;;;;4936455;29;20069;-67
2024/01/18 02:09:48;;;;;;;7.50;0.50;;;;;;;;;;4954259;28;20055;-67
2024/01/18 02:12:16;;;;;;;3.25;0.32;;;;;;;;;;4952733;28;20727;-66
2024/01/18 02:14:44;;;;;;;4.10;0.32;;;;;;;;;;4951843;28;20050;-67
2024/01/18 02:17:11;;;;;;;2.10;0.55;;;;;;;;;;4952527;28;20514;-67
2024/01/18 02:19:39;;;;;;;7.70;0.47;;;;;;;;;;4953501;28;20055;-66
2024/01/18 02:22:07;;;;;;;1.98;0.20;;;;;;;;;;4951054;28;20047;-66
2024/01/18 02:24:42;;;;;;;4.13;0.38;;;;;;;;;;4946421;28;20139;-67
2024/01/18 02:27:10;;;;;;;1.60;0.20;;;;;;;;;;4950102;28;20051;-66
2024/01/18 02:29:38;;;;;;;3.97;0.20;;;;;;;;;;4944368;28;20098;-67
2024/01/18 02:32:06;;;;;;;5.03;0.60;;;;;;;;;;4952145;28;20051;-66
2024/01/18 02:34:33;;;;;;;0.77;0.22;;;;;;;;;;4954258;28;20055;-66
2024/01/18 02:37:00;;;;;;;6.13;0.50;;;;;;;;;;4933647;29;20161;-67
2024/01/18 02:39:27;;;;;;;1.00;0.28;;;;;;;;;;4951716;28;20138;-67
2024/01/18 02:41:55;;;;;;;4.03;0.57;;;;;;;;;;4948632;28;20303;-67
2024/01/18 02:44:25;;;;;;;3.60;0.40;;;;;;;;;;4948209;28;20138;-67
2024/01/18 02:46:52;;;;;;;6.75;0.55;;;;;;;;;;4952363;28;20059;-66
2024/01/18 02:49:19;;;;;;;2.55;0.20;;;;;;;;;;4952157;28;20398;-66
2024/01/18 02:51:47;;;;;;;1.75;0.25;;;;;;;;;;4954354;28;20066;-67
2024/01/18 02:54:14;;;;;;;2.22;0.20;;;;;;;;;;4954224;28;20043;-67
2024/01/18 02:56:41;;;;;;;2.08;0.20;;;;;;;;;;4952124;28;20111;-67
2024/01/18 02:59:09;;;;;;;2.55;0.38;;;;;;;;;;4970010;28;20407;-67
2024/01/18 03:01:37;;;;;;;7.70;0.38;;;;;;;;;;4971702;28;20486;-67
2024/01/18 03:04:05;;;;;;;2.40;0.20;;;;;;;;;;4953468;28;20062;-67
2024/01/18 03:06:32;;;;;;;4.00;0.45;;;;;;;;;;4970701;28;20047;-66
2024/01/18 03:08:59;;;;;;;5.82;0.30;;;;;;;;;;4970569;28;20078;-67
2024/01/18 03:11:27;;;;;;;0.82;0.32;;;;;;;;;;4970397;28;20058;-66
2024/01/18 03:13:54;;;;;;;1.95;0.40;;;;;;;;;;4971771;28;20050;-67
2024/01/18 03:16:21;;;;;;;0.60;0.20;;;;;;;;;;4969660;28;20070;-67
2024/01/18 03:18:50;;;;;;;2.58;0.30;;;;;;;;;;4970714;28;20101;-66
2024/01/18 03:21:17;;;;;;;4.20;0.38;;;;;;;;;;4965698;28;20553;-66
2024/01/18 03:23:45;;;;;;;2.72;0.32;;;;;;;;;;4968747;28;20053;-67
2024/01/18 03:26:12;;;;;;;4.07;0.38;;;;;;;;;;4950204;28;20065;-66
2024/01/18 03:28:40;;;;;;;1.88;0.30;;;;;;;;;;4969029;28;20130;-66
2024/01/18 03:31:11;;;;;;;2.53;0.38;;;;;;;;;;4950048;28;20055;-66
2024/01/18 03:33:38;;;;;;;2.22;0.20;;;;;;;;;;4968871;28;20478;-66
2024/01/18 03:36:07;;;;;;;4.30;0.30;;;;;;;;;;4967650;28;20062;-66
2024/01/18 03:38:34;;;;;;;1.70;0.30;;;;;;;;;;4970924;28;20046;-66
2024/01/18 03:41:02;;;;;;;2.67;0.28;;;;;;;;;;4967722;28;20050;-67
2024/01/18 03:43:29;;;;;;;5.55;0.90;;;;;;;;;;4965095;28;20410;-66
2024/01/18 03:45:56;;;;;;;1.75;0.52;;;;;;;;;;4969451;28;20054;-67
2024/01/18 03:48:23;;;;;;;2.95;0.30;;;;;;;;;;4970518;28;20051;-66
2024/01/18 03:50:51;;;;;;;6.43;0.28;;;;;;;;;;4968756;28;20055;-66
2024/01/18 03:53:20;;;;;;;5.80;0.40;;;;;;;;;;4967383;28;20082;-67
2024/01/18 03:55:47;;;;;;;4.75;0.40;;;;;;;;;;4966502;28;20054;-67
2024/01/18 03:58:14;;;;;;;2.05;0.30;;;;;;;;;;4969208;28;20066;-66
2024/01/18 04:00:41;;;;;;;8.98;0.43;;;;;;;;;;4970667;28;20092;-67
2024/01/18 04:03:09;;;;;;;6.38;0.40;;;;;;;;;;4969680;28;20135;-67
2024/01/18 04:05:36;;;;;;;1.73;0.22;;;;;;;;;;4970959;28;20053;-67
2024/01/18 04:08:04;;;;;;;1.70;0.22;;;;;;;;;;4967739;28;20054;-67
2024/01/18 04:10:32;;;;;;;6.90;0.30;;;;;;;;;;4970451;28;20082;-67
2024/01/18 04:13:00;;;;;;;3.60;0.20;;;;;;;;;;4968745;28;20475;-67
2024/01/18 04:15:27;;;;;;;2.72;0.38;;;;;;;;;;4970955;28;20406;-67
2024/01/18 04:17:54;;;;;;;1.48;0.15;;;;;;;;;;4968794;28;20055;-67
2024/01/18 04:20:26;;;;;;;5.28;0.20;;;;;;;;;;4970284;28;20055;-66
2024/01/18 04:22:54;;;;;;;0.32;0.00;;;;;;;;;;4968379;28;20050;-67
2024/01/18 04:25:21;;;;;;;0.85;0.10;;;;;;;;;;4969762;28;20066;-67
2024/01/18 04:27:50;;;;;;;1.98;0.10;;;;;;;;;;4968684;28;20080;-67
2024/01/18 04:30:17;;;;;;;2.03;0.10;;;;;;;;;;4969127;28;20081;-67
2024/01/18 04:32:45;;;;;;;2.05;0.20;;;;;;;;;;4968414;28;20043;-67
2024/01/18 04:35:12;;;;;;;2.83;0.20;;;;;;;;;;4968599;28;20414;-67
2024/01/18 04:37:39;;;;;;;7.88;0.38;;;;;;;;;;4967510;28;20054;-66
2024/01/18 04:40:07;;;;;;;0.32;0.00;;;;;;;;;;4969371;28;20062;-67
2024/01/18 04:42:34;;;;;;;8.32;0.30;;;;;;;;;;4969161;28;20529;-66
2024/01/18 04:45:03;;;;;;;0.20;0.10;;;;;;;;;;4970050;28;20498;-66
2024/01/18 04:47:30;;;;;;;1.13;0.30;;;;;;;;;;4968156;28;20046;-66
2024/01/18 04:49:58;;;;;;;1.25;0.10;;;;;;;;;;4965838;28;20486;-67
2024/01/18 04:52:25;;;;;;;1.58;0.20;;;;;;;;;;4968021;28;20078;-67
2024/01/18 04:54:52;;;;;;;3.47;0.20;;;;;;;;;;4951584;28;20050;-67
2024/01/18 04:57:20;;;;;;;7.75;0.30;;;;;;;;;;4968953;28;20086;-66
2024/01/18 04:59:47;;;;;;;2.80;0.13;;;;;;;;;;4968326;28;20053;-67
2024/01/18 05:02:16;;;;;;;5.00;0.30;;;;;;;;;;4952158;28;20106;-66
2024/01/18 05:04:43;;;;;;;3.17;0.22;;;;;;;;;;4968255;28;20054;-67
2024/01/18 05:07:11;;;;;;;6.97;0.30;;;;;;;;;;4969660;28;20062;-66
2024/01/18 05:09:38;;;;;;;5.15;0.30;;;;;;;;;;4966031;28;20396;-67
2024/01/18 05:12:07;;;;;;;2.85;0.22;;;;;;;;;;4969083;28;20126;-66
2024/01/18 05:14:34;;;;;;;1.17;0.10;;;;;;;;;;4968887;28;20364;-66
2024/01/18 05:17:05;;;;;;;7.05;0.35;;;;;;;;;;4968760;28;20057;-67
2024/01/18 05:19:34;;;;;;;3.60;0.50;;;;;;;;;;4969189;28;20073;-67
2024/01/18 05:22:01;;;;;;;2.30;0.40;;;;;;;;;;4967798;28;20379;-67
2024/01/18 05:24:30;;;;;;;10.13;0.25;;;;;;;;;;4969163;28;20046;-67
2024/01/18 05:26:57;;;;;;;4.82;0.50;;;;;;;;;;4966762;28;20117;-66
2024/01/18 05:29:24;;;;;;;7.50;0.20;;;;;;;;;;4968252;28;20498;-67
2024/01/18 05:31:54;;;;;;;0.43;0.13;;;;;;;;;;4968335;28;20051;-67
2024/01/18 05:34:22;;;;;;;4.82;0.47;;;;;;;;;;4966822;28;20046;-66
2024/01/18 05:36:50;;;;;;;3.53;0.30;;;;;;;;;;4966614;28;20049;-66
2024/01/18 05:39:17;;;;;;;3.60;0.20;;;;;;;;;;4968285;28;20053;-66
2024/01/18 05:41:45;;;;;;;3.70;0.20;;;;;;;;;;4968405;28;20058;-67
2024/01/18 05:44:12;;;;;;;1.83;0.28;;;;;;;;;;4968733;28;20430;-66
2024/01/18 05:46:39;;;;;;;5.45;0.20;;;;;;;;;;4965114;28;20043;-67
2024/01/18 05:49:07;;;;;;;0.75;0.10;;;;;;;;;;4969614;28;20583;-67
2024/01/18 05:51:34;;;;;;;4.22;0.30;;;;;;;;;;4966657;28;20053;-67
2024/01/18 05:54:03;;;;;;;0.75;0.20;;;;;;;;;;4966945;28;20129;-67
2024/01/18 05:56:30;;;;;;;4.72;0.40;;;;;;;;;;4968694;28;20047;-66
2024/01/18 05:58:57;;;;;;;3.38;0.10;;;;;;;;;;4967433;28;20063;-67
2024/01/18 06:01:24;;;;;;;2.78;0.10;;;;;;;;;;4968799;28;20047;-67
2024/01/18 06:03:52;;;;;;;1.48;0.10;;;;;;;;;;4968215;28;20527;-66
2024/01/18 06:06:19;;;;;;;2.72;0.20;;;;;;;;;;4965671;28;20062;-67
2024/01/18 06:08:46;;;;;;;1.13;0.10;;;;;;;;;;4943127;28;20066;-67
2024/01/18 06:11:15;;;;;;;3.13;0.45;;;;;;;;;;4961772;28;20047;-67
2024/01/18 06:13:42;;;;;;;1.85;0.25;;;;;;;;;;4965824;28;20046;-67
2024/01/18 06:16:10;;;;;;;3.00;0.85;;;;;;;;;;4966616;28;20406;-68
2024/01/18 06:18:38;;;;;;;4.43;0.28;;;;;;;;;;4965508;28;20062;-67
2024/01/18 06:21:05;;;;;;;0.70;0.28;;;;;;;;;;4967511;28;20061;-66
2024/01/18 06:23:32;;;;;;;2.15;0.50;;;;;;;;;;4950678;28;20039;-66
2024/01/18 06:26:00;;;;;;;2.88;0.32;;;;;;;;;;4966633;28;20879;-67
2024/01/18 06:28:28;;;;;;;3.83;0.63;;;;;;;;;;4948174;28;20436;-66
2024/01/18 06:30:56;;;;;;;1.55;0.10;;;;;;;;;;4965182;28;20065;-67
2024/01/18 06:33:23;;;;;;;3.78;0.20;;;;;;;;;;4967433;28;20446;-67
2024/01/18 06:35:50;;;;;;;3.13;0.10;;;;;;;;;;4965980;28;20077;-67
2024/01/18 06:38:20;;;;;;;3.95;0.20;;;;;;;;;;4967115;28;20058;-67
2024/01/18 06:40:47;;;;;;;4.00;0.40;;;;;;;;;;4944126;28;20699;-67
2024/01/18 06:43:14;;;;;;;1.65;0.20;;;;;;;;;;4967413;28;20074;-66
2024/01/18 06:45:43;;;;;;;2.17;0.10;;;;;;;;;;4967307;28;20055;-66
2024/01/18 06:48:10;;;;;;;4.97;0.30;;;;;;;;;;4968671;28;20490;-67
2024/01/18 06:50:37;;;;;;;0.98;0.20;;;;;;;;;;4968581;28;20050;-67
2024/01/18 06:53:05;;;;;;;6.82;0.30;;;;;;;;;;4969612;28;20058;-67
2024/01/18 06:55:32;;;;;;;5.15;0.20;;;;;;;;;;4970267;28;20413;-67
2024/01/18 06:58:02;;;;;;;1.23;0.10;;;;;;;;;;4970921;28;20132;-67
2024/01/18 07:00:29;;;;;;;2.67;0.20;;;;;;;;;;4971473;28;20050;-66
2024/01/18 07:02:58;;;;;;;4.93;0.40;;;;;;;;;;4968964;28;20742;-66
2024/01/18 07:05:25;;;;;;;6.03;0.60;;;;;;;;;;4971812;28;20055;-67
2024/01/18 07:07:52;;;;;;;3.88;0.47;;;;;;;;;;4969871;28;20577;-67
2024/01/18 07:10:20;;;;;;;4.30;0.50;;;;;;;;;;4963405;28;20415;-66
2024/01/18 07:12:48;;;;;;;2.60;0.40;;;;;;;;;;4969942;28;20062;-67
2024/01/18 07:15:15;;;;;;;5.45;0.65;;;;;;;;;;4971103;28;20518;-67
2024/01/18 07:17:43;;;;;;;5.68;0.90;;;;;;;;;;4970889;28;20085;-67
2024/01/18 07:20:12;;;;;;;4.00;0.40;;;;;;;;;;4970233;28;20046;-67
2024/01/18 07:22:39;;;;;;;7.68;2.50;;;;;;;;;;4970911;28;20513;-67
2024/01/18 07:25:07;;;;;;;2.88;0.35;;;;;;;;;;4967910;28;20043;-66
2024/01/18 07:27:34;;;;;;;7.90;0.40;;;;;;;;;;4970534;28;20512;-67
2024/01/18 07:30:03;;;;;;;8.38;0.77;;;;;;;;;;4950769;28;20074;-67
2024/01/18 07:32:30;;;;;;;2.97;0.40;;;;;;;;;;4963409;28;20050;-67
2024/01/18 07:34:57;;;;;;;2.97;0.20;;;;;;;;;;4966495;28;20051;-67
2024/01/18 07:37:27;;;;;;;2.03;0.30;;;;;;;;;;4968566;28;20055;-66
2024/01/18 07:39:54;;;;;;;3.42;0.32;;;;;;;;;;4965817;28;20058;-67
2024/01/18 07:42:21;;;;;;;2.95;0.50;;;;;;;;;;4966924;28;20059;-67
2024/01/18 07:44:48;;;;;;;2.42;0.20;;;;;;;;;;4969779;28;20113;-67
2024/01/18 07:47:16;;;;;;;5.40;0.50;;;;;;;;;;4948273;28;20050;-67
2024/01/18 07:49:46;;;;;;;4.28;0.43;;;;;;;;;;4951447;28;20059;-67
2024/01/18 07:52:13;;;;;;;3.50;0.50;;;;;;;;;;4969604;28;20055;-67
2024/01/18 07:54:42;;;;;;;4.93;1.17;;;;;;;;;;4970362;28;20050;-66
2024/01/18 07:57:09;;;;;;;5.45;0.40;;;;;;;;;;4968402;28;20059;-67
2024/01/18 07:59:36;;;;;;;2.78;0.45;;;;;;;;;;4962360;28;20402;-67
2024/01/18 08:02:04;;;;;;;4.05;0.40;;;;;;;;;;4969655;28;20061;-67
2024/01/18 08:04:31;;;;;;;7.82;1.00;;;;;;;;;;4969038;28;20054;-67
2024/01/18 08:06:58;;;;;;;3.92;0.38;;;;;;;;;;4969648;28;20055;-67
2024/01/18 08:09:25;;;;;;;1.05;0.20;;;;;;;;;;4969371;28;20062;-67
2024/01/18 08:11:54;;;;;;;2.00;0.20;;;;;;;;;;4970036;28;20054;-67
2024/01/18 08:14:21;;;;;;;2.45;0.30;;;;;;;;;;4968893;28;20074;-67
2024/01/18 08:16:50;;;;;;;2.70;0.38;;;;;;;;;;4965112;28;20129;-68
2024/01/18 08:19:18;;;;;;;5.50;0.60;;;;;;;;;;4972760;28;20081;-67
2024/01/18 08:21:45;;;;;;;5.55;1.70;;;;;;;;;;4972007;28;20063;-67
2024/01/18 08:24:13;;;;;;;1.63;0.50;;;;;;;;;;4976117;28;20463;-67
2024/01/18 08:26:42;;;;;;;2.67;0.73;;;;;;;;;;4970191;28;20545;-67
2024/01/18 08:29:10;;;;;;;1.23;0.38;;;;;;;;;;4949230;28;20062;-67
2024/01/18 08:31:38;;;;;;;7.20;0.70;;;;;;;;;;4968639;28;20056;-67
2024/01/18 08:34:07;;;;;;;1.50;0.20;;;;;;;;;;4972458;28;20478;-67
2024/01/18 08:36:36;;;;;;;10.27;0.70;;;;;;;;;;4970172;28;20490;-67
2024/01/18 08:39:03;;;;;;;4.28;0.40;;;;;;;;;;4971639;28;20144;-67
2024/01/18 08:41:31;;;;;;;4.13;0.40;;;;;;;;;;4972391;28;20410;-67
2024/01/18 08:43:58;;;;;;;1.83;0.30;;;;;;;;;;4952853;28;20133;-68
2024/01/18 08:46:27;;;;;;;3.90;1.08;;;;;;;;;;4966955;28;20043;-67
2024/01/18 08:48:55;;;;;;;5.97;0.43;;;;;;;;;;4973085;28;20050;-67
2024/01/18 08:51:22;;;;;;;3.50;0.35;;;;;;;;;;4973507;28;20059;-67
2024/01/18 08:53:49;;;;;;;1.38;0.22;;;;;;;;;;4957147;28;20051;-67
2024/01/18 08:56:17;;;;;;;4.07;0.22;;;;;;;;;;4966807;28;20050;-67
2024/01/18 08:58:44;;;;;;;4.45;0.50;;;;;;;;;;4966329;28;20594;-67
2024/01/18 09:01:12;;;;;;;7.63;0.50;;;;;;;;;;4964317;28;20050;-67
2024/01/18 09:03:41;;;;;;;4.70;0.30;;;;;;;;;;4948218;28;20055;-67
2024/01/18 09:06:08;;;;;;;4.68;0.40;;;;;;;;;;4967256;28;20051;-67
2024/01/18 09:08:35;;;;;;;4.32;0.28;;;;;;;;;;4964740;28;20507;-67
2024/01/18 09:11:03;;;;;;;4.10;0.60;;;;;;;;;;4962536;28;20062;-67
2024/01/18 09:13:31;;;;;;;6.25;0.35;;;;;;;;;;4968776;28;20054;-67
2024/01/18 09:15:58;;;;;;;5.68;0.68;;;;;;;;;;4965517;28;20062;-67
2024/01/18 09:18:25;;;;;;;7.28;0.70;;;;;;;;;;4964695;28;20073;-68
2024/01/18 09:20:54;;;;;;;3.10;0.20;;;;;;;;;;4967564;28;20051;-68
2024/01/18 09:23:21;;;;;;;6.00;0.70;;;;;;;;;;4968282;28;20058;-67
2024/01/18 09:25:48;;;;;;;8.35;0.50;;;;;;;;;;4968024;28;20054;-67
2024/01/18 09:28:16;;;;;;;10.82;0.60;;;;;;;;;;4967544;28;20482;-67
2024/01/18 09:30:43;;;;;;;5.07;0.50;;;;;;;;;;4966973;28;20050;-67
2024/01/18 09:33:10;;;;;;;2.80;0.73;;;;;;;;;;4968624;28;20502;-67
2024/01/18 09:35:40;;;;;;;23.50;5.72;;;;;;;;;;4966370;28;20039;-67
2024/01/18 09:38:10;;;;;;;14.40;4.65;;;;;;;;;;4967030;28;20109;-67
2024/01/18 09:40:39;;;;;;;2.20;0.70;;;;;;;;;;4967733;28;20167;-68
2024/01/18 09:43:09;;;;;;;6.75;0.80;;;;;;;;;;4968071;28;20090;-68
2024/01/18 09:45:39;;;;;;;1.13;0.30;;;;;;;;;;4967893;28;20050;-68
2024/01/18 09:48:08;;;;;;;2.15;0.30;;;;;;;;;;4967866;28;20138;-67
2024/01/18 09:50:37;;;;;;;2.92;0.20;;;;;;;;;;4944247;28;20054;-68
2024/01/18 09:53:05;;;;;;;0.30;0.10;;;;;;;;;;4965495;28;20050;-67
2024/01/18 09:55:34;;;;;;;0.50;0.05;;;;;;;;;;4966487;28;20046;-68
2024/01/18 09:58:04;;;;;;;3.65;0.13;;;;;;;;;;4967712;28;20061;-68
2024/01/18 10:00:32;;;;;;;2.25;0.35;;;;;;;;;;4963804;28;20101;-68
2024/01/18 10:03:00;;;;;;;2.38;0.45;;;;;;;;;;4967324;28;20078;-68
2024/01/18 10:05:27;;;;;;;4.97;0.65;;;;;;;;;;4951807;28;20137;-68
2024/01/18 10:07:54;;;;;;;3.70;1.40;;;;;;;;;;4966743;28;20059;-68
2024/01/18 10:10:21;;;;;;;3.30;1.40;;;;;;;;;;4968284;28;20043;-68
2024/01/18 10:12:50;;;;;;;3.17;0.88;;;;;;;;;;4964489;28;20050;-68
2024/01/18 10:15:32;;;;;;;2.03;0.30;;;;;;;;;;4962545;28;20402;-68
2024/01/18 10:17:59;;;;;;;1.17;0.43;;;;;;;;;;4966622;28;20311;-68
2024/01/18 10:20:27;;;;;;;4.25;0.80;;;;;;;;;;4968185;28;20093;-68
2024/01/18 10:22:55;;;;;;;2.13;0.43;;;;;;;;;;4967347;28;20058;-68
2024/01/18 10:25:24;;;;;;;1.27;0.40;;;;;;;;;;4969962;28;20446;-68
2024/01/18 10:27:54;;;;;;;2.75;0.50;;;;;;;;;;4970977;28;20047;-68
2024/01/18 10:30:21;;;;;;;18.38;5.13;;;;;;;;;;4971252;28;20098;-68
2024/01/18 10:32:49;;;;;;;30.63;9.70;;;;;;;;;;4970628;28;20050;-68
2024/01/18 10:35:24;;;;;;;16.15;5.15;;;;;;;;;;4971295;28;20054;-68
2024/01/18 10:38:00;;;;;;;13.80;4.22;;;;;;;;;;4970530;28;20069;-68
2024/01/18 10:40:28;;;;;;;4.88;0.65;;;;;;;;;;4951623;28;20130;-67
2024/01/18 10:42:57;;;;;;;12.27;3.97;;;;;;;;;;4971295;28;20073;-68
2024/01/18 10:45:25;;;;;;;4.55;0.68;;;;;;;;;;4968450;28;20526;-68
2024/01/18 10:47:52;;;;;;;5.22;1.38;;;;;;;;;;4970522;28;20046;-68
2024/01/18 10:50:19;;;;;;;3.53;0.55;;;;;;;;;;4972140;28;20406;-68
2024/01/18 10:52:47;;;;;;;5.03;0.40;;;;;;;;;;4971248;28;20118;-68
2024/01/18 10:55:14;;;;;;;6.63;0.60;;;;;;;;;;4970714;28;20510;-68
2024/01/18 10:57:42;;;;;;;3.05;0.20;;;;;;;;;;4972366;28;20061;-68
2024/01/18 11:00:15;;;;;;;8.63;0.50;;;;;;;;;;4968674;28;20053;-68
2024/01/18 11:02:44;;;;;;;4.80;0.47;;;;;;;;;;4970916;28;20122;-68
2024/01/18 11:05:13;;;;;;;7.30;0.90;;;;;;;;;;4967154;28;20061;-68
2024/01/18 11:07:41;;;;;;;6.57;0.40;;;;;;;;;;4970138;28;20493;-68
2024/01/18 11:10:10;;;;;;;3.80;0.40;;;;;;;;;;4968833;28;20082;-68
2024/01/18 11:12:38;;;;;;;6.95;1.00;;;;;;;;;;4970259;28;20054;-68
2024/01/18 11:15:06;;;;;;;8.50;1.60;;;;;;;;;;4968586;28;20055;-68
2024/01/18 11:17:36;;;;;;;6.25;1.60;;;;;;;;;;4969742;28;20047;-68
2024/01/18 11:20:05;;;;;;;6.50;1.20;;;;;;;;;;4968448;28;20051;-68
2024/01/18 11:22:33;;;;;;;7.20;1.83;;;;;;;;;;4971221;28;20055;-68
2024/01/18 11:25:05;;;;;;;6.80;2.55;;;;;;;;;;4971142;28;20538;-68
2024/01/18 11:27:36;;;;;;;5.88;1.33;;;;;;;;;;4969204;28;20080;-68
2024/01/18 11:30:04;;;;;;;6.90;1.17;;;;;;;;;;4969269;28;20055;-68
2024/01/18 11:32:31;;;;;;;8.02;0.82;;;;;;;;;;4969896;28;20058;-68
2024/01/18 11:35:09;;;;;;;8.55;1.85;;;;;;;;;;4970206;28;20047;-68
2024/01/18 11:37:37;;;;;;;6.18;0.73;;;;;;;;;;4950380;28;20078;-68
2024/01/18 11:40:06;;;;;;;4.00;0.77;;;;;;;;;;4953864;28;20503;-68
2024/01/18 11:42:34;;;;;;;3.63;0.60;;;;;;;;;;4969793;28;20120;-68
2024/01/18 11:45:02;;;;;;;5.22;0.65;;;;;;;;;;4967934;28;20126;-68
2024/01/18 11:47:30;;;;;;;6.68;1.38;;;;;;;;;;4950017;28;20047;-68
2024/01/18 11:49:57;;;;;;;4.53;0.82;;;;;;;;;;4973925;28;20607;-68
2024/01/18 11:52:27;;;;;;;1.55;0.50;;;;;;;;;;4970180;28;20047;-68
2024/01/18 11:54:55;;;;;;;8.02;1.08;;;;;;;;;;4970187;28;20065;-68
2024/01/18 11:57:23;;;;;;;6.15;1.15;;;;;;;;;;4970388;28;20086;-68
2024/01/18 11:59:51;;;;;;;6.57;1.15;;;;;;;;;;4968082;28;20721;-68
2024/01/18 12:02:18;;;;;;;10.55;1.65;;;;;;;;;;4967934;28;20047;-68
2024/01/18 12:04:48;;;;;;;8.15;1.20;;;;;;;;;;4969194;28;20125;-67
2024/01/18 12:07:15;;;;;;;8.00;0.82;;;;;;;;;;4951714;28;20090;-68
2024/01/18 12:09:44;;;;;;;2.70;0.50;;;;;;;;;;4959503;28;20521;-68
2024/01/18 12:12:12;;;;;;;4.65;0.70;;;;;;;;;;4970696;28;20168;-68
2024/01/18 12:14:41;;;;;;;3.65;0.55;;;;;;;;;;4969299;28;20609;-68
2024/01/18 12:17:09;;;;;;;2.47;0.47;;;;;;;;;;4969748;28;20089;-68
2024/01/18 12:19:37;;;;;;;8.02;0.80;;;;;;;;;;4969916;28;20053;-68
2024/01/18 12:22:06;;;;;;;4.38;0.47;;;;;;;;;;4969946;28;20367;-67
2024/01/18 12:24:34;;;;;;;4.82;0.30;;;;;;;;;;4965380;28;20051;-68
2024/01/18 12:27:04;;;;;;;3.88;0.20;;;;;;;;;;4968844;28;20067;-68
2024/01/18 12:29:32;;;;;;;5.53;0.47;;;;;;;;;;4968185;28;20055;-67
2024/01/18 12:31:59;;;;;;;1.55;0.30;;;;;;;;;;4959376;28;20047;-68
2024/01/18 12:34:27;;;;;;;3.33;0.50;;;;;;;;;;4969647;28;20105;-68
2024/01/18 12:36:54;;;;;;;1.90;0.32;;;;;;;;;;4964740;28;20158;-68
2024/01/18 12:39:22;;;;;;;9.05;0.47;;;;;;;;;;4964627;28;20099;-68
2024/01/18 12:41:52;;;;;;;4.30;0.55;;;;;;;;;;4967630;28;20133;-68
2024/01/18 12:44:20;;;;;;;4.43;1.00;;;;;;;;;;4968502;28;20101;-68
2024/01/18 12:46:49;;;;;;;4.93;1.30;;;;;;;;;;4960549;28;20043;-68
2024/01/18 12:49:17;;;;;;;6.00;0.88;;;;;;;;;;4967842;28;20046;-68
2024/01/18 12:51:45;;;;;;;3.28;0.45;;;;;;;;;;4969569;28;20670;-68
2024/01/18 12:54:13;;;;;;;4.38;0.77;;;;;;;;;;4968928;28;20053;-68
2024/01/18 12:56:44;;;;;;;4.93;0.70;;;;;;;;;;4968165;28;20050;-67
2024/01/18 12:59:11;;;;;;;1.65;0.50;;;;;;;;;;4951874;28;20065;-67
2024/01/18 13:01:40;;;;;;;5.15;0.40;;;;;;;;;;4949109;28;20049;-68
2024/01/18 13:04:11;;;;;;;3.95;0.40;;;;;;;;;;4946888;28;20447;-68
2024/01/18 13:06:39;;;;;;;3.15;0.43;;;;;;;;;;4949525;28;20110;-67
2024/01/18 13:09:06;;;;;;;3.08;0.30;;;;;;;;;;4948372;28;20051;-68
2024/01/18 13:11:33;;;;;;;7.68;0.40;;;;;;;;;;4949539;28;20051;-68
2024/01/18 13:14:01;;;;;;;2.28;0.43;;;;;;;;;;4931311;28;20503;-68
2024/01/18 13:16:29;;;;;;;3.35;0.50;;;;;;;;;;4950113;28;20078;-68
2024/01/18 13:19:02;;;;;;;2.30;0.30;;;;;;;;;;4949620;29;20050;-68
2024/01/18 13:21:29;;;;;;;1.45;0.40;;;;;;;;;;4954497;28;20396;-68
2024/01/18 13:23:56;;;;;;;18.98;0.80;;;;;;;;;;4947124;29;20494;-68
2024/01/18 13:26:24;;;;;;;7.32;0.70;;;;;;;;;;4948939;28;20055;-68
2024/01/18 13:28:51;;;;;;;5.72;0.88;;;;;;;;;;4947372;29;20062;-68
2024/01/18 13:31:19;;;;;;;2.53;0.35;;;;;;;;;;4947620;28;20736;-68
2024/01/18 13:33:46;;;;;;;4.15;0.38;;;;;;;;;;4949166;28;20047;-68
2024/01/18 13:36:15;;;;;;;4.00;0.30;;;;;;;;;;4946326;28;20510;-67
2024/01/18 13:38:42;;;;;;;2.90;0.30;;;;;;;;;;4946569;29;20470;-68
2024/01/18 13:41:12;;;;;;;4.05;0.35;;;;;;;;;;4947303;29;20411;-67
2024/01/18 13:43:39;;;;;;;4.57;0.50;;;;;;;;;;4945762;29;20130;-68
2024/01/18 13:46:06;;;;;;;6.75;0.47;;;;;;;;;;4946158;28;20066;-67
2024/01/18 13:48:35;;;;;;;6.03;2.20;;;;;;;;;;4949330;28;20077;-68
2024/01/18 13:51:02;;;;;;;1.00;0.30;;;;;;;;;;4941963;29;20120;-68
2024/01/18 13:53:30;;;;;;;7.28;0.77;;;;;;;;;;4930521;29;20051;-68
2024/01/18 13:55:58;;;;;;;2.95;1.25;;;;;;;;;;4946523;28;20054;-67
2024/01/18 13:58:25;;;;;;;6.63;1.02;;;;;;;;;;4958722;28;20839;-67
2024/01/18 14:00:52;;;;;;;12.20;5.28;;;;;;;;;;4970799;28;20042;-67
2024/01/18 14:03:20;;;;;;;10.68;5.45;;;;;;;;;;4969462;28;20046;-67
2024/01/18 14:05:47;;;;;;;4.97;2.00;;;;;;;;;;4961498;28;20108;-67
2024/01/18 14:08:15;;;;;;;5.93;1.85;;;;;;;;;;4964002;28;20121;-67
2024/01/18 14:10:43;;;;;;;5.95;0.75;;;;;;;;;;4971642;28;20147;-67
2024/01/18 14:13:10;;;;;;;2.63;0.57;;;;;;;;;;4952132;28;20084;-67
2024/01/18 14:15:38;;;;;;;5.03;0.43;;;;;;;;;;4941407;28;20139;-67
2024/01/18 14:18:06;;;;;;;4.07;0.38;;;;;;;;;;4971499;28;20078;-67
2024/01/18 14:20:34;;;;;;;5.82;0.30;;;;;;;;;;4954883;28;20117;-67
2024/01/18 14:23:01;;;;;;;2.47;0.47;;;;;;;;;;4970236;28;20738;-67
2024/01/18 14:25:30;;;;;;;3.30;0.65;;;;;;;;;;4943461;28;20538;-67
2024/01/18 14:27:59;;;;;;;2.17;0.47;;;;;;;;;;4967367;28;20236;-67
2024/01/18 14:30:26;;;;;;;2.42;0.30;;;;;;;;;;4970576;28;20054;-67
2024/01/18 14:32:54;;;;;;;2.45;0.40;;;;;;;;;;4967790;28;20478;-67
2024/01/18 14:35:21;;;;;;;4.97;1.58;;;;;;;;;;4970486;28;20074;-67
2024/01/18 14:37:48;;;;;;;3.60;1.13;;;;;;;;;;4967544;28;20047;-68
2024/01/18 14:40:16;;;;;;;9.80;0.95;;;;;;;;;;4968552;28;20366;-68
2024/01/18 14:42:43;;;;;;;5.40;0.98;;;;;;;;;;4953535;28;20069;-68
2024/01/18 14:45:12;;;;;;;6.10;1.42;;;;;;;;;;4971604;28;20050;-68
2024/01/18 14:47:39;;;;;;;8.50;0.98;;;;;;;;;;4954246;28;20062;-67